Time;durP1;ratioP1;P1;durP2;ratioP2;P2;SDS_P1;SDS_P2;PMS_P1;PMS_P2;Temp;Humidity;BMP_temperature;BMP_pressure;BME280_temperature;BME280_humidity;BME280_pressure;Samples;Min_cycle;Max_cycle;Signal;HPM_P1;HPM_P2
2021/12/13 00:02:29;;;;;;;163.40;55.45;;;;;;;-0.17;89.76;101611.47;1792835;78;25822;-82
2021/12/13 00:05:06;;;;;;;169.28;55.30;;;;;;;-0.16;89.82;101606.56;1762308;78;26003;-82
2021/12/13 00:07:38;;;;;;;172.98;55.52;;;;;;;-0.16;89.85;101610.52;1788711;79;26004;-82
2021/12/13 00:10:11;;;;;;;178.62;57.45;;;;;;;-0.15;89.90;101608.27;1796778;78;25822;-82
2021/12/13 00:12:43;;;;;;;171.18;57.40;;;;;;;-0.14;89.93;101601.59;1788473;80;27463;-83
2021/12/13 00:15:15;;;;;;;169.97;58.80;;;;;;;-0.14;89.89;101598.10;1797167;78;25286;-82
2021/12/13 00:17:50;;;;;;;186.80;59.80;;;;;;;-0.13;90.02;101597.17;1793973;78;26492;-84
2021/12/13 00:20:28;;;;;;;195.55;64.72;;;;;;;-0.14;89.94;101603.37;1801119;78;25780;-82
2021/12/13 00:22:52;;;;;;;191.77;60.83;;;;;;;-0.13;90.14;101597.17;1734031;81;26226;-82
2021/12/13 00:25:27;;;;;;;181.52;56.18;;;;;;;-0.13;90.12;101590.59;1749291;81;27458;-82
2021/12/13 00:27:58;;;;;;;192.68;57.38;;;;;;;-0.15;90.01;101590.66;1749124;81;25839;-83
2021/12/13 00:30:42;;;;;;;196.60;61.58;;;;;;;-0.14;90.08;101598.10;1793237;78;26115;-82
2021/12/13 00:33:38;;;;;;;206.75;59.00;;;;;;;-0.19;89.90;101593.11;1744666;80;25820;-83
2021/12/13 00:36:21;;;;;;;190.22;54.38;;;;;;;-0.23;90.05;101592.93;1796529;78;25817;-81
2021/12/13 00:38:53;;;;;;;189.47;59.58;;;;;;;-0.25;90.06;101596.59;1770564;78;28367;-82
2021/12/13 00:41:25;;;;;;;189.75;56.88;;;;;;;-0.29;90.21;101598.58;1792613;78;26493;-82
2021/12/13 00:43:56;;;;;;;198.15;62.48;;;;;;;-0.27;90.27;101602.42;1789593;79;25778;-83
2021/12/13 00:46:25;;;;;;;210.78;63.20;;;;;;;-0.28;90.45;101602.88;1792026;78;26248;-83
2021/12/13 00:48:55;;;;;;;204.18;60.92;;;;;;;-0.25;90.56;101600.08;1800478;78;25883;-82
2021/12/13 00:51:29;;;;;;;196.70;59.20;;;;;;;-0.23;90.59;101604.78;1797771;78;27443;-82
2021/12/13 00:54:01;;;;;;;202.28;60.67;;;;;;;-0.22;90.57;101607.80;1801586;78;26543;-82
2021/12/13 00:56:56;;;;;;;201.20;61.88;;;;;;;-0.21;90.45;101610.80;1788859;80;26515;-82
2021/12/13 00:59:31;;;;;;;198.35;58.40;;;;;;;-0.22;90.41;101613.53;1797326;78;26480;-82
2021/12/13 01:02:12;;;;;;;214.48;62.20;;;;;;;-0.24;90.43;101618.05;1789026;79;26004;-81
2021/12/13 01:05:15;;;;;;;196.05;57.98;;;;;;;-0.26;90.50;101622.09;1789859;78;27468;-82
2021/12/13 01:08:06;;;;;;;200.72;61.60;;;;;;;-0.28;90.43;101621.31;1806356;78;25992;-82
2021/12/13 01:11:17;;;;;;;195.55;58.08;;;;;;;-0.34;90.38;101618.23;1793135;78;25973;-81
2021/12/13 01:14:31;;;;;;;189.67;56.28;;;;;;;-0.34;90.64;101603.27;1793194;78;25848;-83
2021/12/13 01:17:13;;;;;;;179.20;52.17;;;;;;;-0.35;90.58;101598.09;1801137;78;25784;-83
2021/12/13 01:19:53;;;;;;;171.43;51.05;;;;;;;-0.36;90.70;101604.28;1800206;78;27507;-82
2021/12/13 01:22:54;;;;;;;171.15;49.23;;;;;;;-0.43;90.65;101611.73;1787015;80;26539;-82
2021/12/13 01:25:43;;;;;;;187.92;52.50;;;;;;;-0.48;90.62;101624.31;1792215;78;25813;-82
2021/12/13 01:28:25;;;;;;;189.32;58.65;;;;;;;-0.55;90.85;101635.27;1788265;80;25739;-82
2021/12/13 01:31:07;;;;;;;182.43;53.85;;;;;;;-0.53;91.11;101641.30;1810168;78;26055;-83
2021/12/13 01:33:35;;;;;;;187.03;54.18;;;;;;;-0.48;91.29;101643.19;1805820;78;27427;-82
2021/12/13 01:36:05;;;;;;;176.18;54.95;;;;;;;-0.44;91.29;101642.92;1792660;78;25822;-82
2021/12/13 01:38:37;;;;;;;173.55;51.77;;;;;;;-0.42;91.31;101647.63;1789870;79;25886;-83
2021/12/13 01:41:12;;;;;;;172.40;53.25;;;;;;;-0.39;91.23;101641.34;1785625;79;25845;-82
2021/12/13 01:43:46;;;;;;;176.12;56.42;;;;;;;-0.44;91.09;101624.50;1789148;79;25932;-82
2021/12/13 01:46:13;;;;;;;173.25;54.18;;;;;;;-0.44;91.21;101631.08;1792312;78;27627;-82
2021/12/13 01:48:44;;;;;;;179.95;55.75;;;;;;;-0.42;91.31;101627.03;1789811;78;25730;-82
2021/12/13 01:51:15;;;;;;;178.35;52.05;;;;;;;-0.42;91.31;101631.84;1795464;78;25765;-82
2021/12/13 01:53:59;;;;;;;160.07;51.95;;;;;;;-0.41;91.31;101626.97;1789011;80;25848;-82
2021/12/13 01:59:42;;;;;;;153.18;48.70;;;;;;;-0.45;91.14;101631.19;1747381;78;28600;-82
2021/12/13 02:02:14;;;;;;;158.65;49.53;;;;;;;-0.45;91.17;101625.42;1791940;78;25963;-82
2021/12/13 02:04:43;;;;;;;146.98;44.25;;;;;;;-0.47;91.29;101610.20;1793552;79;25824;-81
2021/12/13 02:07:12;;;;;;;168.57;51.35;;;;;;;-0.47;91.31;101617.27;1791210;79;25777;-82
2021/12/13 02:09:44;;;;;;;162.03;47.80;;;;;;;-0.47;91.41;101624.67;1788159;79;26087;-82
2021/12/13 02:12:15;;;;;;;158.37;48.25;;;;;;;-0.49;91.22;101626.55;1787894;79;28296;-82
2021/12/13 02:17:44;;;;;;;146.13;48.05;;;;;;;-0.55;91.25;101616.39;1790533;79;25724;-82
2021/12/13 02:20:19;;;;;;;109.50;37.83;;;;;;;-0.51;91.40;101623.66;1792369;78;26221;-82
2021/12/13 02:22:49;;;;;;;106.63;35.73;;;;;;;-0.51;91.28;101618.39;1790351;79;25991;-82
2021/12/13 02:25:35;;;;;;;112.22;35.20;;;;;;;-0.57;91.05;101607.75;1786225;79;28493;-82
2021/12/13 02:28:13;;;;;;;87.50;32.13;;;;;;;-0.57;91.15;101612.16;1789476;79;25760;-82
2021/12/13 02:31:05;;;;;;;91.63;29.85;;;;;;;-0.62;90.95;101616.86;1785616;78;26483;-81
2021/12/13 02:33:37;;;;;;;96.22;29.90;;;;;;;-0.63;90.99;101608.12;1793481;79;25749;-82
2021/12/13 02:36:18;;;;;;;90.85;28.57;;;;;;;-0.64;91.00;101611.67;1788505;79;25960;-82
2021/12/13 02:38:47;;;;;;;90.85;30.60;;;;;;;-0.59;91.11;101612.72;1718914;82;28594;-82
2021/12/13 02:41:19;;;;;;;99.80;32.10;;;;;;;-0.59;90.99;101610.94;1726623;82;26401;-82
2021/12/13 02:43:50;;;;;;;105.00;33.58;;;;;;;-0.60;90.87;101614.53;1745385;81;25840;-82
2021/12/13 02:46:18;;;;;;;105.35;31.65;;;;;;;-0.56;91.02;101609.92;1740281;81;25804;-82
2021/12/13 02:48:55;;;;;;;119.57;34.60;;;;;;;-0.58;90.78;101609.16;1746543;81;25946;-82
2021/12/13 02:51:39;;;;;;;129.97;40.80;;;;;;;-0.59;90.77;101600.88;1742467;81;28491;-82
2021/12/13 02:54:21;;;;;;;142.72;44.55;;;;;;;-0.59;90.89;101600.88;1748420;81;26022;-82
2021/12/13 02:57:20;;;;;;;142.45;43.38;;;;;;;-0.59;90.95;101591.67;1755100;81;26507;-82
2021/12/13 03:00:01;;;;;;;132.80;42.08;;;;;;;-0.60;90.95;101578.16;1732604;82;25968;-82
2021/12/13 03:02:39;;;;;;;136.07;41.75;;;;;;;-0.58;91.00;101592.06;1741159;81;25329;-82
2021/12/13 03:05:14;;;;;;;115.30;37.03;;;;;;;-0.58;90.97;101590.75;1724976;81;28240;-82
2021/12/13 03:07:45;;;;;;;113.30;37.98;;;;;;;-0.59;90.87;101584.62;1728513;82;25767;-82
2021/12/13 03:10:17;;;;;;;119.20;37.73;;;;;;;-0.57;90.91;101595.91;1723586;82;25894;-82
2021/12/13 03:12:44;;;;;;;107.17;35.50;;;;;;;-0.61;90.62;101607.55;1733195;82;26482;-81
2021/12/13 03:15:15;;;;;;;112.15;36.55;;;;;;;-0.62;90.75;101605.84;1725332;82;25897;-82
2021/12/13 03:18:04;;;;;;;103.90;34.48;;;;;;;-0.64;90.57;101601.64;1716236;82;28231;-82
2021/12/13 03:21:10;;;;;;;93.15;31.00;;;;;;;-0.67;90.54;101609.23;1722559;82;26600;-82
2021/12/13 03:23:51;;;;;;;104.85;34.05;;;;;;;-0.68;90.55;101605.39;1732282;82;25823;-82
2021/12/13 03:26:57;;;;;;;107.35;37.35;;;;;;;-0.66;90.82;101601.70;1724998;82;26317;-82
2021/12/13 03:29:41;;;;;;;103.27;34.45;;;;;;;-0.64;90.82;101599.83;1725254;82;25890;-82
2021/12/13 03:32:12;;;;;;;120.05;35.48;;;;;;;-0.62;90.86;101577.40;1716375;82;28501;-82
2021/12/13 03:34:43;;;;;;;113.12;36.42;;;;;;;-0.62;90.72;101590.06;1720599;82;26680;-82
2021/12/13 03:37:18;;;;;;;111.68;36.73;;;;;;;-0.62;90.62;101597.13;1717053;82;25529;-82
2021/12/13 03:39:59;;;;;;;107.25;34.75;;;;;;;-0.61;90.59;101594.86;1731951;81;25919;-83
2021/12/13 03:42:34;;;;;;;114.75;39.60;;;;;;;-0.60;90.65;101597.42;1725341;82;25894;-82
2021/12/13 03:45:06;;;;;;;122.40;38.38;;;;;;;-0.60;90.51;101597.42;1715798;82;27484;-82
2021/12/13 03:47:38;;;;;;;102.80;34.08;;;;;;;-0.62;90.42;101601.08;1718977;82;25644;-83
2021/12/13 03:50:10;;;;;;;115.62;36.70;;;;;;;-0.63;90.41;101604.17;1729457;81;25307;-82
2021/12/13 03:52:41;;;;;;;115.67;38.75;;;;;;;-0.64;90.33;101608.22;1717124;82;26278;-82
2021/12/13 03:55:11;;;;;;;95.17;33.10;;;;;;;-0.62;90.43;101617.69;1723124;82;25931;-82
2021/12/13 03:57:43;;;;;;;98.20;33.42;;;;;;;-0.63;90.18;101618.64;1716133;82;28513;-82
2021/12/13 04:00:14;;;;;;;100.12;30.97;;;;;;;-0.66;90.10;101618.81;1722793;82;25926;-81
2021/12/13 04:02:42;;;;;;;93.75;30.92;;;;;;;-0.66;90.08;101617.98;1721240;82;26631;-83
2021/12/13 04:05:16;;;;;;;91.25;32.15;;;;;;;-0.66;90.15;101617.49;1742744;81;25762;-82
2021/12/13 04:07:48;;;;;;;101.58;33.55;;;;;;;-0.69;89.87;101622.95;1767304;80;25929;-82
2021/12/13 04:10:20;;;;;;;108.47;33.90;;;;;;;-0.72;89.91;101615.23;1744188;81;27487;-83
2021/12/13 04:12:52;;;;;;;92.12;31.02;;;;;;;-0.73;89.98;101617.96;1751567;81;25827;-82
2021/12/13 04:15:32;;;;;;;117.55;39.18;;;;;;;-0.74;89.98;101617.56;1762728;80;26008;-81
2021/12/13 04:18:02;;;;;;;113.70;37.03;;;;;;;-0.75;90.15;101608.00;1760929;80;25806;-83
2021/12/13 04:20:35;;;;;;;103.78;35.08;;;;;;;-0.75;90.19;101606.69;1742439;80;25325;-82
2021/12/13 04:23:18;;;;;;;113.80;38.53;;;;;;;-0.72;90.22;101613.91;1744299;81;27477;-82
2021/12/13 04:25:49;;;;;;;118.82;37.10;;;;;;;-0.71;90.23;101609.51;1759413;80;26734;-83
2021/12/13 04:28:23;;;;;;;112.20;34.33;;;;;;;-0.69;90.26;101603.69;1756332;80;25759;-83
2021/12/13 04:30:58;;;;;;;117.87;36.73;;;;;;;-0.70;90.03;101604.15;1753197;81;25815;-83
2021/12/13 04:33:29;;;;;;;106.43;36.08;;;;;;;-0.73;89.99;101613.55;1758147;80;25742;-83
2021/12/13 04:36:03;;;;;;;112.97;37.00;;;;;;;-0.75;89.92;101615.43;1754938;81;27106;-83
2021/12/13 04:38:45;;;;;;;107.12;33.63;;;;;;;-0.75;90.03;101614.58;1756580;80;25338;-83
2021/12/13 04:41:08;;;;;;;112.05;35.33;;;;;;;-0.74;90.01;101613.16;1732087;81;25318;-84
2021/12/13 04:43:36;;;;;;;98.50;32.25;;;;;;;-0.72;90.09;101606.02;1741292;81;26421;-83
2021/12/13 04:46:06;;;;;;;111.95;34.08;;;;;;;-0.71;90.04;101618.72;1758048;80;26598;-83
2021/12/13 04:48:34;;;;;;;105.15;33.75;;;;;;;-0.70;90.01;101612.04;1742707;81;27731;-82
2021/12/13 04:51:09;;;;;;;113.68;34.75;;;;;;;-0.68;89.96;101622.50;1720498;82;26139;-82
2021/12/13 04:53:39;;;;;;;115.90;36.58;;;;;;;-0.74;89.59;101622.83;1742240;81;25716;-83
2021/12/13 04:56:10;;;;;;;;;;;;;;;-0.79;89.73;101625.72;1748524;81;26470;-83
2021/12/13 04:58:38;;;;;;;103.92;31.97;;;;;;;-0.79;89.83;101624.41;1744926;81;25355;-83
2021/12/13 05:01:10;;;;;;;86.05;28.47;;;;;;;-0.82;89.88;101624.14;1756397;80;27478;-83
2021/12/13 05:03:42;;;;;;;75.85;25.40;;;;;;;-0.83;89.78;101618.49;1767965;80;26453;-83
2021/12/13 05:06:16;;;;;;;71.95;22.62;;;;;;;-0.83;89.75;101615.00;1758843;80;25546;-83
2021/12/13 05:08:53;;;;;;;68.00;22.15;;;;;;;-0.82;89.66;101618.03;1735062;81;25807;-83
2021/12/13 05:11:20;;;;;;;62.75;22.77;;;;;;;-0.87;89.60;101622.23;1756223;80;26009;-83
2021/12/13 05:13:54;;;;;;;66.60;22.65;;;;;;;-0.87;89.61;101625.33;1756148;80;27630;-82
2021/12/13 05:16:46;;;;;;;71.07;24.87;;;;;;;-0.90;89.40;101634.73;1763465;80;26699;-83
2021/12/13 05:19:17;;;;;;;65.67;23.00;;;;;;;-0.89;89.53;101632.00;1769938;80;25987;-83
2021/12/13 05:21:46;;;;;;;;;;;;;;;-0.89;89.54;101632.00;1711162;81;25815;-83
2021/12/13 05:24:18;;;;;;;78.57;23.95;;;;;;;-0.91;89.48;101635.65;1755234;80;26062;-83
2021/12/13 05:26:52;;;;;;;68.50;22.73;;;;;;;-0.92;89.60;101639.23;1756227;80;27460;-83
2021/12/13 05:29:33;;;;;;;74.82;24.95;;;;;;;-0.92;89.60;101638.74;1756232;80;25902;-82
2021/12/13 05:32:16;;;;;;;93.95;32.05;;;;;;;-0.96;89.33;101631.97;1752014;81;25938;-83
2021/12/13 05:34:54;;;;;;;78.40;27.52;;;;;;;-0.95;89.54;101633.68;1744349;81;25469;-83
2021/12/13 05:37:21;;;;;;;78.25;25.70;;;;;;;-0.95;89.55;101644.20;1753438;81;25979;-83
2021/12/13 05:40:05;;;;;;;80.03;26.07;;;;;;;-0.96;89.52;101645.58;1757562;81;27618;-83
2021/12/13 05:42:42;;;;;;;72.00;25.20;;;;;;;-0.95;89.43;101645.97;1748575;81;25986;-83
2021/12/13 05:45:14;;;;;;;79.35;26.10;;;;;;;-0.98;89.35;101650.08;1752062;81;25925;-83
2021/12/13 05:47:58;;;;;;;80.60;23.85;;;;;;;-0.96;89.52;101662.67;1750341;81;25726;-83
2021/12/13 05:50:32;;;;;;;72.85;22.77;;;;;;;-0.99;89.18;101665.49;1737001;82;25889;-84
2021/12/13 05:53:10;;;;;;;76.55;24.00;;;;;;;-1.00;89.31;101666.41;1762386;81;28283;-83
2021/12/13 05:56:05;;;;;;;84.45;26.07;;;;;;;-1.04;89.30;101671.01;1745582;81;25848;-82
2021/12/13 05:58:43;;;;;;;78.60;27.25;;;;;;;-1.05;89.39;101671.11;1757710;80;25771;-83
2021/12/13 06:01:15;;;;;;;74.50;25.62;;;;;;;-1.09;89.56;101665.16;1761916;80;25772;-83
2021/12/13 06:03:47;;;;;;;84.58;28.73;;;;;;;-1.05;89.66;101673.73;1770078;80;25916;-83
2021/12/13 06:06:18;;;;;;;83.78;28.02;;;;;;;-1.03;89.77;101675.34;1715992;82;27466;-82
2021/12/13 06:08:50;;;;;;;84.20;26.07;;;;;;;-0.98;89.82;101680.32;1733224;81;25896;-83
2021/12/13 06:11:21;;;;;;;90.70;28.23;;;;;;;-0.95;89.70;101678.84;1754042;81;25401;-83
2021/12/13 06:13:57;;;;;;;84.35;25.43;;;;;;;-0.97;89.74;101677.63;1736764;82;26557;-83
2021/12/13 06:16:45;;;;;;;83.45;28.02;;;;;;;-0.98;89.58;101682.48;1736866;81;26029;-83
2021/12/13 06:19:32;;;;;;;84.60;26.55;;;;;;;-0.98;89.56;101683.80;1752691;81;27478;-83
2021/12/13 06:22:16;;;;;;;77.62;23.27;;;;;;;-0.98;89.65;101685.58;1745528;81;26159;-82
2021/12/13 06:24:48;;;;;;;61.55;23.77;;;;;;;-1.01;89.63;101684.45;1762302;81;25926;-82
2021/12/13 06:27:24;;;;;;;75.25;20.77;;;;;;;-1.06;89.40;101689.11;1764385;81;25756;-83
2021/12/13 06:30:16;;;;;;;61.65;19.87;;;;;;;-1.09;89.37;101686.19;1756038;81;25829;-83
2021/12/13 06:32:53;;;;;;;69.65;22.90;;;;;;;-1.09;89.45;101691.94;1753467;81;27014;-82
2021/12/13 06:35:54;;;;;;;99.47;31.00;;;;;;;-1.14;89.44;101697.45;1748036;81;25844;-82
2021/12/13 06:38:28;;;;;;;69.65;23.75;;;;;;;-1.15;89.51;101700.14;1748655;81;25967;-83
2021/12/13 06:41:15;;;;;;;87.67;28.05;;;;;;;-1.21;89.55;101696.08;1742770;81;26259;-83
2021/12/13 06:44:05;;;;;;;71.05;23.18;;;;;;;-1.17;89.83;101699.38;1750688;81;26535;-83
2021/12/13 06:46:45;;;;;;;73.10;23.70;;;;;;;-1.15;89.88;101706.25;1748657;81;28488;-82
2021/12/13 06:49:23;;;;;;;70.85;25.85;;;;;;;-1.11;89.90;101706.95;1752173;81;33079;-83
2021/12/13 06:52:15;;;;;;;65.67;23.05;;;;;;;-1.11;89.93;101706.95;1743834;81;26445;-82
2021/12/13 06:54:59;;;;;;;74.50;22.77;;;;;;;-1.10;90.01;101701.59;1746439;81;25819;-82
2021/12/13 06:57:42;;;;;;;62.25;22.27;;;;;;;-1.12;89.97;101711.81;1745745;81;25810;-83
2021/12/13 07:00:25;;;;;;;60.03;20.70;;;;;;;-1.13;89.96;101714.90;1728444;81;46513;-82
2021/12/13 07:03:00;;;;;;;60.25;20.02;;;;;;;-1.14;89.93;101718.48;1740061;81;26462;-83
2021/12/13 07:05:52;;;;;;;61.30;19.50;;;;;;;-1.15;89.90;101714.14;1733230;81;26484;-82
2021/12/13 07:08:37;;;;;;;62.85;20.30;;;;;;;-1.13;90.00;101714.90;1727403;82;25980;-83
2021/12/13 07:11:12;;;;;;;53.70;19.73;;;;;;;-1.13;89.91;101714.90;1720440;82;25953;-83
2021/12/13 07:13:44;;;;;;;62.90;23.15;;;;;;;-1.14;89.96;101717.63;1724810;82;27467;-83
2021/12/13 07:16:25;;;;;;;55.40;19.75;;;;;;;-1.14;89.91;101722.42;1740375;81;25811;-83
2021/12/13 07:19:00;;;;;;;56.13;20.88;;;;;;;-1.12;90.00;101727.59;1739850;81;25978;-83
2021/12/13 07:21:36;;;;;;;90.65;34.63;;;;;;;-1.09;90.01;101734.00;1721685;82;26512;-82
2021/12/13 07:24:13;;;;;;;69.90;25.02;;;;;;;-1.08;89.91;101744.88;1703127;81;25851;-82
2021/12/13 07:27:06;;;;;;;68.65;20.95;;;;;;;-1.07;89.92;101738.22;1726444;82;27468;-82
2021/12/13 07:29:52;;;;;;;62.25;19.95;;;;;;;-1.05;89.91;101740.78;1755419;81;25884;-83
2021/12/13 07:32:35;;;;;;;54.35;21.12;;;;;;;-1.07;89.94;101735.58;1791608;79;25832;-83
2021/12/13 07:35:12;;;;;;;67.08;23.98;;;;;;;-1.09;89.73;101737.95;1790958;79;25363;-83
2021/12/13 07:37:46;;;;;;;68.60;23.50;;;;;;;-1.10;89.88;101740.17;1788750;79;25306;-83
2021/12/13 07:40:39;;;;;;;65.57;21.95;;;;;;;-1.09;90.00;101737.45;1785189;80;28835;-83
2021/12/13 07:43:23;;;;;;;73.35;23.07;;;;;;;-1.09;89.96;101739.26;1784943;80;25960;-83
2021/12/13 07:46:09;;;;;;;65.20;23.85;;;;;;;-1.09;89.92;101745.83;1792196;79;25658;-83
2021/12/13 07:48:47;;;;;;;84.30;25.02;;;;;;;-1.09;90.19;101747.14;1787112;79;26127;-83
2021/12/13 07:51:27;;;;;;;66.40;24.92;;;;;;;-1.10;89.99;101743.66;1792989;79;25799;-83
2021/12/13 07:54:03;;;;;;;69.25;23.80;;;;;;;-1.12;90.03;101753.88;1785930;79;27543;-83
2021/12/13 07:56:39;;;;;;;70.17;23.22;;;;;;;-1.08;90.24;101748.83;1782208;79;25914;-82
2021/12/13 07:59:30;;;;;;;83.70;27.27;;;;;;;-1.06;90.00;101753.53;1777519;79;25878;-83
2021/12/13 08:02:09;;;;;;;89.42;30.85;;;;;;;-1.14;89.66;101760.55;1773420;80;25765;-82
2021/12/13 08:04:52;;;;;;;74.12;25.60;;;;;;;-1.12;90.28;101763.94;1773151;80;25994;-83
2021/12/13 08:07:30;;;;;;;72.30;23.42;;;;;;;-1.09;90.36;101762.92;1798014;78;27470;-82
2021/12/13 08:10:08;;;;;;;65.22;22.22;;;;;;;-1.05;90.44;101765.27;1742347;81;25901;-82
2021/12/13 08:12:46;;;;;;;67.37;23.42;;;;;;;-1.01;90.46;101758.94;1740424;81;25840;-82
2021/12/13 08:15:26;;;;;;;63.95;22.27;;;;;;;-1.01;90.18;101758.94;1789296;78;25788;-82
2021/12/13 08:17:58;;;;;;;66.42;22.42;;;;;;;-1.03;90.06;101765.20;1789573;78;26049;-83
2021/12/13 08:20:35;;;;;;;79.15;27.77;;;;;;;-1.01;90.16;101760.71;1795573;78;28262;-84
2021/12/13 08:23:04;;;;;;;74.80;27.32;;;;;;;-1.02;90.00;101760.31;1789908;78;25850;-84
2021/12/13 08:25:35;;;;;;;68.85;25.25;;;;;;;-1.07;89.90;101757.94;1789561;78;25825;-84
2021/12/13 08:28:09;;;;;;;89.55;30.75;;;;;;;-1.10;89.94;101765.16;1794916;78;25806;-83
2021/12/13 08:30:52;;;;;;;82.72;30.27;;;;;;;-1.08;90.28;101772.48;1794437;78;25901;-83
2021/12/13 08:33:33;;;;;;;90.60;29.42;;;;;;;-1.05;90.34;101769.22;1793930;78;27610;-83
2021/12/13 08:36:09;;;;;;;82.70;26.30;;;;;;;-1.01;90.41;101771.23;1785571;78;26762;-83
2021/12/13 08:38:53;;;;;;;70.32;24.75;;;;;;;-1.00;90.17;101779.02;1785581;80;26467;-82
2021/12/13 08:41:46;;;;;;;71.33;24.12;;;;;;;-0.99;90.36;101787.31;1788785;78;25819;-83
2021/12/13 08:44:21;;;;;;;79.75;24.95;;;;;;;-0.97;90.32;101785.44;1798790;78;25801;-83
2021/12/13 08:46:55;;;;;;;81.15;26.02;;;;;;;-0.94;90.32;101783.11;1803672;78;27592;-83
2021/12/13 08:49:50;;;;;;;107.12;37.35;;;;;;;-0.96;90.15;101780.55;1804425;78;25874;-83
2021/12/13 08:52:33;;;;;;;83.55;30.65;;;;;;;-0.97;90.25;101783.27;1791152;78;25891;-83
2021/12/13 08:55:17;;;;;;;85.45;28.75;;;;;;;-0.93;90.35;101786.11;1789949;78;26144;-83
2021/12/13 08:58:00;;;;;;;103.92;47.50;;;;;;;-0.91;90.30;101796.08;1786103;78;25992;-83
2021/12/13 09:00:35;;;;;;;102.12;42.43;;;;;;;-0.93;90.03;101796.63;1799043;78;27465;-83
2021/12/13 09:03:31;;;;;;;80.80;30.70;;;;;;;-0.92;90.19;101792.59;1784486;80;25900;-83
2021/12/13 09:06:09;;;;;;;87.88;29.63;;;;;;;-0.86;90.41;101794.05;1807814;78;25872;-83
2021/12/13 09:08:56;;;;;;;79.37;27.50;;;;;;;-0.83;90.41;101785.52;1810092;78;25987;-83
2021/12/13 09:11:45;;;;;;;81.30;27.62;;;;;;;-0.78;90.40;101785.26;1797940;78;25885;-83
2021/12/13 09:14:35;;;;;;;83.67;28.42;;;;;;;-0.76;90.43;101779.45;1793886;78;27454;-83
2021/12/13 09:17:13;;;;;;;84.35;29.55;;;;;;;-0.74;90.40;101778.03;1794556;78;26097;-83
2021/12/13 09:19:56;;;;;;;81.57;28.07;;;;;;;-0.72;90.17;101768.27;1788493;79;26179;-83
2021/12/13 09:22:39;;;;;;;79.87;26.57;;;;;;;-0.71;90.26;101772.61;1785770;80;25922;-83
2021/12/13 09:25:18;;;;;;;84.58;30.92;;;;;;;-0.73;90.24;101771.39;1788508;79;25873;-82
2021/12/13 09:27:56;;;;;;;95.40;30.75;;;;;;;-0.73;90.16;101770.08;1792693;78;27460;-82
2021/12/13 09:30:51;;;;;;;88.45;30.32;;;;;;;-0.69;90.25;101774.69;1802885;78;25765;-83
2021/12/13 09:33:32;;;;;;;92.00;31.12;;;;;;;-0.69;90.20;101773.38;1796682;78;26109;-83
2021/12/13 09:36:12;;;;;;;108.80;37.95;;;;;;;-0.68;90.26;101771.96;1799734;78;26403;-83
2021/12/13 09:39:06;;;;;;;107.37;42.55;;;;;;;-0.65;90.48;101778.38;1798725;78;25897;-83
2021/12/13 09:41:47;;;;;;;256.90;116.35;;;;;;;-0.61;90.17;101782.53;1801250;78;28303;-84
2021/12/13 09:44:31;;;;;;;100.60;36.65;;;;;;;-0.66;90.00;101781.93;1796558;78;25930;-83
2021/12/13 09:47:13;;;;;;;93.35;33.83;;;;;;;-0.66;89.83;101785.05;1786853;78;25952;-84
2021/12/13 09:50:00;;;;;;;99.42;34.33;;;;;;;-0.67;89.99;101780.25;1793230;78;25889;-84
2021/12/13 09:52:32;;;;;;;97.70;34.78;;;;;;;-0.63;90.17;101787.49;1789577;79;25861;-83
2021/12/13 09:55:16;;;;;;;84.03;31.97;;;;;;;-0.61;90.11;101786.48;1797008;78;27421;-84
2021/12/13 09:57:59;;;;;;;99.52;33.60;;;;;;;-0.58;90.28;101786.31;1791173;79;25827;-83
2021/12/13 10:00:41;;;;;;;111.35;44.10;;;;;;;-0.59;90.05;101791.64;1796789;78;26133;-84
2021/12/13 10:03:12;;;;;;;105.78;42.58;;;;;;;-0.57;90.01;101793.26;1797802;78;25955;-83
2021/12/13 10:05:43;;;;;;;92.70;32.88;;;;;;;-0.53;90.06;101796.09;1796276;78;25309;-83
2021/12/13 10:08:17;;;;;;;88.12;32.25;;;;;;;-0.49;90.06;101792.34;1796340;78;27467;-83
2021/12/13 10:10:55;;;;;;;77.25;29.48;;;;;;;-0.45;89.97;101795.67;1791183;79;25915;-83
2021/12/13 10:13:27;;;;;;;89.05;33.10;;;;;;;-0.42;89.66;101797.66;1792226;79;25774;-83
2021/12/13 10:16:02;;;;;;;74.27;26.25;;;;;;;-0.43;89.43;101799.06;1790988;79;26258;-83
2021/12/13 10:18:33;;;;;;;78.75;27.20;;;;;;;-0.47;89.12;101799.69;1791833;78;26480;-83
2021/12/13 10:21:14;;;;;;;89.22;37.73;;;;;;;-0.56;88.81;101792.34;1786046;79;28790;-83
2021/12/13 10:23:46;;;;;;;74.90;26.87;;;;;;;-0.65;88.96;101786.27;1795750;78;25766;-83
2021/12/13 10:26:15;;;;;;;66.82;26.25;;;;;;;-0.69;88.87;101793.11;1789967;79;25949;-83
2021/12/13 10:28:53;;;;;;;81.72;33.33;;;;;;;-0.71;89.19;101790.57;1789608;79;25849;-83
2021/12/13 10:31:20;;;;;;;84.40;33.00;;;;;;;-0.72;89.34;101793.27;1789252;79;25710;-83
2021/12/13 10:33:47;;;;;;;87.80;28.27;;;;;;;-0.74;89.45;101788.56;1805352;78;28331;-83
2021/12/13 10:36:17;;;;;;;75.65;27.80;;;;;;;-0.69;89.83;101787.84;1795446;78;25980;-83
2021/12/13 10:38:54;;;;;;;79.97;27.60;;;;;;;-0.65;89.94;101781.47;1794310;78;26411;-83
2021/12/13 10:41:29;;;;;;;84.83;28.73;;;;;;;-0.62;90.00;101786.58;1791790;79;26407;-83
2021/12/13 10:44:05;;;;;;;83.47;28.32;;;;;;;-0.58;89.98;101786.31;1792093;78;26105;-83
2021/12/13 10:46:36;;;;;;;84.22;29.75;;;;;;;-0.58;89.82;101787.63;1794681;78;28290;-84
2021/12/13 10:49:19;;;;;;;90.62;29.57;;;;;;;-0.55;89.89;101782.17;1791448;78;26199;-83
2021/12/13 10:51:55;;;;;;;81.28;29.55;;;;;;;-0.52;89.83;101779.38;1787654;79;25728;-83
2021/12/13 10:54:23;;;;;;;86.05;27.73;;;;;;;-0.51;89.70;101781.06;1787463;80;25795;-83
2021/12/13 10:57:01;;;;;;;83.10;29.05;;;;;;;-0.52;89.42;101784.64;1815997;78;25875;-84
2021/12/13 10:59:32;;;;;;;85.87;33.35;;;;;;;-0.48;89.63;101777.41;1792374;78;27443;-83
2021/12/13 11:02:04;;;;;;;79.17;29.95;;;;;;;-0.49;89.53;101780.50;1791177;79;25861;-83
2021/12/13 11:04:36;;;;;;;73.35;27.32;;;;;;;-0.46;89.27;101785.61;1790374;79;25720;-84
2021/12/13 11:07:06;;;;;;;79.95;27.13;;;;;;;-0.42;89.17;101784.95;1788667;79;26473;-83
2021/12/13 11:09:37;;;;;;;88.80;30.00;;;;;;;-0.45;88.88;101782.52;1788139;80;25886;-83
2021/12/13 11:12:11;;;;;;;91.72;31.93;;;;;;;-0.52;88.79;101781.16;1801198;78;27457;-83
2021/12/13 11:14:41;;;;;;;91.70;30.65;;;;;;;-0.57;88.98;101780.56;1789846;78;25983;-83
2021/12/13 11:17:16;;;;;;;100.50;33.13;;;;;;;-0.54;89.46;101781.25;1790542;78;33302;-83
2021/12/13 11:19:47;;;;;;;92.95;30.50;;;;;;;-0.51;89.70;101777.61;1797015;78;26308;-83
2021/12/13 11:22:19;;;;;;;96.97;32.67;;;;;;;-0.50;89.85;101774.88;1793066;78;25904;-83
2021/12/13 11:24:51;;;;;;;90.67;30.85;;;;;;;-0.43;90.00;101773.60;1793042;78;27435;-84
2021/12/13 11:27:27;;;;;;;87.40;32.33;;;;;;;-0.44;89.56;101770.57;1797454;78;26747;-82
2021/12/13 11:29:54;;;;;;;100.62;34.90;;;;;;;-0.44;89.61;101766.63;1792616;78;25818;-83
2021/12/13 11:32:38;;;;;;;82.75;31.25;;;;;;;-0.43;89.43;101770.97;1788413;80;26404;-83
2021/12/13 11:35:10;;;;;;;104.83;41.42;;;;;;;-0.42;89.34;101768.70;1788211;80;25928;-83
2021/12/13 11:38:20;;;;;;;84.67;33.65;;;;;;;-0.43;89.34;101770.97;1789108;80;27635;-84
2021/12/13 11:41:23;;;;;;;71.35;26.77;;;;;;;-0.40;89.61;101768.14;1773114;78;26139;-84
2021/12/13 11:44:40;;;;;;;71.33;26.02;;;;;;;-0.39;89.34;101776.44;1793226;78;25863;-83
2021/12/13 11:47:36;;;;;;;106.07;33.60;;;;;;;-0.44;88.89;101773.20;1797254;78;25778;-83
2021/12/13 11:50:31;;;;;;;91.75;29.90;;;;;;;-0.44;89.28;101774.98;1789591;80;25905;-83
2021/12/13 11:53:53;;;;;;;257.27;70.35;;;;;;;-0.45;89.17;101777.25;1791866;78;27556;-83
2021/12/13 11:57:17;;;;;;;219.70;82.65;;;;;;;-0.47;89.36;101768.11;1789381;79;25900;-83
2021/12/13 11:59:58;;;;;;;109.52;40.70;;;;;;;-0.48;89.45;101761.16;1796913;78;25771;-83
2021/12/13 12:02:58;;;;;;;87.27;27.67;;;;;;;-0.46;89.67;101768.96;1794922;78;26224;-83
2021/12/13 12:05:54;;;;;;;70.42;28.00;;;;;;;-0.47;89.23;101776.00;1810639;78;25832;-84